Airfield :
LOGIN :

Register | Disclaimer

   EN    FR    IT 

 










Legend :    VFR   Marginal VFR   IFR   Intensive IFR   Very Intensive IFR
Visi :
Ceiling :
>= 8 km
>= 3000ft
5 to 8 km
1000 to 3000 ft
1500m to 5 km
500 to 1000 ft
800 to 1500m
200 to 500 ft
< 800m
< 200 ft
Symbols :   Thunderstorms  Fog  Heavy snow  Heavy precipitations  Wind > 20 kt
SIGMETs :     Misc.  Thunderstorms  Icing  Turbulence  Mountain Waves  Volcanic Ashes







- Airport Elevation : 404 ft
- IATA code : WRO


EPWR - Wroclaw

CURRENT METAR :
  • 180700Z VRB02KT 7000 OVC002 M03/M03 Q1025 R11/29//95

EXPIRED METARs :
  • 180630Z VRB01KT 9999 OVC003 M02/M03 Q1025 R11/29//95
  • 180600Z 27003KT 220V310 9999 OVC003 M02/M03 Q1024 R11/29//95
  • 180530Z 30004KT 270V350 9999 OVC003 M02/M03 Q1024 R11/29//95
  • 180500Z 31003KT 260V010 9999 OVC003 M02/M03 Q1024 R11/29//95
  • 180430Z 30003KT 260V350 8000 OVC002 M02/M03 Q1024 R11/29//95

TAF TAF EPWR
Valid from the 18 at 06:00 until the 19 at 06:00 UTC


180530Z 1806/1906 VRB02KT 8000 BKN003
BECMG 1806/1809 SCT020
TEMPO 1817/1906 2000 BR
No reported NOTAMs for that airfield.



MET'MAP, your aeronautical weather chart ! - Copyright ORBIFLY December 2007 - Disclaimer

ORBIFLY MET'MAP TEAM :

Programming & Development : Alexandra Zaïnal
Concept & Development : Baudouin d'Aumeries
Co-Development & Prog : Marc-Olivier Méhu
Technical & hardware support : Manuel Goepfert

Contact : metmap@orbifly.com




SOURCES & CREDITS :

   NOAA